Aérodrome :
LOGIN :

S'inscrire | Disclaimer

   EN    FR    IT 

 










Légende :    VFR   VFR Marginal   IFR   IFR Intensif   IFR Très Intensif
Visi : 
Plafond : 
>= 8 km
>= 3000ft
5 à 8 km
1000 à 3000 ft
1500m à 5 km
500 à 1000 ft
800 à 1500m
200 à 500 ft
< 800m
< 200 ft
Symboles :   Orages  Brouillard  Fortes neiges  Fortes précipitations  Vent > 20 kt
SIGMETs :   Divers  Orages  Givrage  Turbulence  Onde Orograph.  Cendres Volcan.







- Altitude de l'aérodrome : 408 ft
- Code IATA : SOB


LHSM - Sarmellek Balaton

DERNIER METAR :
  • 211315Z 23003KT CAVOK 13/M03 Q1034 NOSIG

METARs EXPIRÉS :
  • 211245Z 01003KT CAVOK 12/M04 Q1035 NOSIG
  • 211215Z 36005KT CAVOK 12/M04 Q1035 NOSIG
  • 211145Z 20002KT CAVOK 12/M02 Q1035 NOSIG
  • 211115Z 05003KT CAVOK 12/M05 Q1036 NOSIG
  • 211045Z 06006KT CAVOK 11/M03 Q1036 NOSIG

TAF TAF LHSM
Valide du 21 à 12h jusqu'au 21 à 21h UTC


211127Z 2112/2121 VRB02KT CAVOK
Pas de NOTAMs connus pour ce terrain.



MET'MAP, la Météo Aéronautique d'un coup d'oeil ! - Copyright ORBIFLY Décembre 2007 - Disclaimer

ORBIFLY MET'MAP TEAM :

Programmation & Développement : Alexandra Zaïnal
Conception & Développement : Baudouin d'Aumeries
Co-Programmation & Développement : Marc-Olivier Méhu
Soutien technique & logistique : Manuel Goepfert

Contact : metmap@orbifly.com




SOURCES & CREDITS :

   NOAA